createdAt,value
2023-04-27T00:05:51.790Z,8.70
2023-04-27T00:20:54.869Z,9.00
2023-04-27T00:36:02.212Z,10.10
2023-04-27T00:51:06.183Z,9.10
2023-04-27T01:06:08.784Z,8.90
2023-04-27T01:21:11.754Z,9.80
2023-04-27T01:36:14.356Z,9.20
2023-04-27T01:51:17.412Z,8.10
2023-04-27T02:06:19.975Z,8.90
2023-04-27T02:21:22.631Z,8.10
2023-04-27T02:36:25.379Z,8.40
2023-04-27T02:51:28.271Z,9.00
2023-04-27T03:06:30.928Z,9.30
2023-04-27T03:21:33.575Z,9.80
2023-04-27T03:36:36.338Z,10.10
2023-04-27T03:51:42.361Z,11.00
2023-04-27T04:06:45.018Z,10.30
2023-04-27T04:21:47.828Z,9.50
2023-04-27T04:51:56.311Z,10.40
2023-04-27T05:07:00.152Z,8.90
2023-04-27T05:22:03.028Z,8.40
2023-04-27T05:52:08.495Z,7.30
2023-04-27T06:07:16.369Z,7.20
2023-04-27T06:22:19.134Z,6.50
2023-04-27T06:37:21.989Z,7.00
2023-04-27T06:52:24.800Z,6.50
2023-04-27T07:07:27.530Z,5.20
2023-04-27T07:22:30.420Z,4.30
2023-04-27T07:37:33.629Z,4.10
2023-04-27T07:52:37.311Z,4.00
2023-04-27T08:07:44.509Z,4.70
2023-04-27T08:22:47.846Z,3.40
2023-04-27T08:37:50.662Z,2.80
2023-04-27T08:52:53.673Z,2.80
2023-04-27T09:08:08.300Z,3.70
2023-04-27T09:23:11.239Z,3.60
2023-04-27T09:38:15.882Z,3.90
2023-04-27T09:53:22.988Z,3.80
2023-04-27T10:08:26.652Z,3.30
2023-04-27T10:23:29.556Z,2.90
2023-04-27T10:38:33.083Z,3.70
2023-04-27T10:53:36.610Z,3.30
2023-04-27T11:08:48.079Z,3.40
2023-04-27T11:23:50.968Z,3.70
2023-04-27T11:38:58.268Z,5.20
2023-04-27T11:54:07.842Z,4.60
2023-04-27T12:09:11.337Z,3.60
2023-04-27T12:24:14.666Z,4.60
2023-04-27T12:39:20.389Z,5.10
2023-04-27T12:54:22.981Z,5.00
2023-04-27T13:24:29.444Z,4.10
2023-04-27T13:39:32.918Z,4.30
2023-04-27T13:54:35.768Z,4.40
2023-04-27T14:09:38.528Z,5.20
2023-04-27T14:24:41.204Z,5.10
2023-04-27T14:54:48.336Z,4.80
2023-04-27T15:09:52.264Z,5.20
2023-04-27T15:24:55.163Z,5.10
2023-04-27T15:39:57.864Z,5.20
2023-04-27T15:55:06.608Z,5.10
2023-04-27T16:10:10.127Z,4.90
2023-04-27T16:25:13.006Z,4.90
2023-04-27T16:55:19.516Z,5.40
2023-04-27T17:10:22.142Z,6.80
2023-04-27T17:25:25.055Z,6.70
2023-04-27T18:10:33.365Z,7.20
2023-04-27T18:25:36.104Z,8.60
2023-04-27T18:55:42.613Z,12.80
2023-04-27T19:10:45.408Z,12.60
2023-04-27T19:25:48.522Z,15.40
2023-04-27T19:40:51.666Z,17.80
2023-04-27T19:55:54.971Z,30.40
2023-04-27T20:10:57.671Z,21.60
2023-04-27T20:26:00.371Z,14.40
2023-04-27T20:56:06.855Z,20.90
2023-04-27T21:11:10.500Z,21.20
2023-04-27T21:26:13.290Z,23.30
2023-04-27T21:56:21.173Z,22.90
2023-04-27T22:11:24.094Z,26.20
2023-04-27T22:26:26.757Z,32.30
2023-04-27T22:41:29.361Z,38.00
2023-04-27T22:56:31.943Z,33.40
2023-04-27T23:11:35.088Z,31.80
2023-04-27T23:26:38.000Z,31.90
2023-04-27T23:41:40.846Z,24.60
2023-04-27T23:56:43.419Z,23.00
